createdAt,value
2018-08-08T00:00:29.251Z,100511.80
2018-08-08T00:02:56.492Z,100498.88
2018-08-08T00:05:30.401Z,100502.66
2018-08-08T00:07:57.633Z,100495.45
2018-08-08T00:10:24.875Z,100499.77
2018-08-08T00:12:52.214Z,100489.99
2018-08-08T00:15:19.470Z,100492.27
2018-08-08T00:17:46.734Z,100493.75
2018-08-08T00:20:14.322Z,100496.84
2018-08-08T00:22:41.607Z,100494.92
2018-08-08T00:25:11.236Z,100493.91
2018-08-08T00:27:39.628Z,100498.47
2018-08-08T00:30:07.959Z,100499.72
2018-08-08T00:32:35.256Z,100499.14
2018-08-08T00:35:02.546Z,100495.02
2018-08-08T00:37:29.914Z,100495.04
2018-08-08T00:39:57.303Z,100482.61
2018-08-08T00:42:24.526Z,100487.86
2018-08-08T00:44:51.835Z,100483.60
2018-08-08T00:47:19.077Z,100476.27
2018-08-08T00:49:46.371Z,100468.44
2018-08-08T00:52:13.618Z,100471.52
2018-08-08T00:54:40.884Z,100466.50
2018-08-08T00:57:08.129Z,100463.09
2018-08-08T00:59:35.382Z,100461.86
2018-08-08T01:02:02.644Z,100460.66
2018-08-08T01:04:30.016Z,100456.03
2018-08-08T01:06:57.366Z,100458.23
2018-08-08T01:09:24.607Z,100463.59
2018-08-08T01:11:51.856Z,100463.84
2018-08-08T01:14:19.120Z,100461.66
2018-08-08T01:16:46.436Z,100461.88
2018-08-08T01:19:13.676Z,100460.91
2018-08-08T01:21:41.096Z,100458.61
2018-08-08T01:24:08.375Z,100458.72
2018-08-08T01:26:35.641Z,100460.91
2018-08-08T01:29:03.036Z,100461.05
2018-08-08T01:31:30.261Z,100450.66
2018-08-08T01:33:57.552Z,100458.00
2018-08-08T01:36:24.813Z,100458.97
2018-08-08T01:38:59.775Z,100457.36
2018-08-08T01:41:27.064Z,100452.14
2018-08-08T01:43:54.279Z,100453.36
2018-08-08T01:46:21.569Z,100460.20
2018-08-08T01:48:48.749Z,100456.66
2018-08-08T01:51:15.955Z,100453.72
2018-08-08T01:53:44.070Z,100460.06
2018-08-08T01:56:11.323Z,100452.50
2018-08-08T01:58:38.581Z,100460.17
2018-08-08T02:01:09.397Z,100461.04
2018-08-08T02:03:36.653Z,100454.44
2018-08-08T02:06:04.109Z,100462.97
2018-08-08T02:08:31.892Z,100459.58
2018-08-08T02:10:59.144Z,100450.05
2018-08-08T02:13:26.423Z,100453.73
2018-08-08T02:15:53.721Z,100448.34
2018-08-08T02:18:21.014Z,100448.34
2018-08-08T02:20:48.179Z,100444.44
2018-08-08T02:23:15.400Z,100440.08
2018-08-08T02:25:57.395Z,100443.36
2018-08-08T02:28:24.801Z,100438.42
2018-08-08T02:30:52.125Z,100432.80
2018-08-08T02:33:19.296Z,100434.14
2018-08-08T02:35:46.500Z,100428.91
2018-08-08T02:38:14.344Z,100430.62
2018-08-08T02:40:41.713Z,100435.95
2018-08-08T02:43:08.984Z,100440.83
2018-08-08T02:45:36.321Z,100442.39
2018-08-08T02:48:03.912Z,100437.41
2018-08-08T02:50:31.204Z,100440.94
2018-08-08T02:52:58.508Z,100437.77
2018-08-08T02:55:25.719Z,100431.78
2018-08-08T02:57:53.030Z,100439.34
2018-08-08T03:00:20.654Z,100437.10
2018-08-08T03:02:47.930Z,100449.42
2018-08-08T03:05:15.605Z,100441.45
2018-08-08T03:07:43.957Z,100444.38
2018-08-08T03:10:12.728Z,100443.27
2018-08-08T03:12:40.141Z,100441.94
2018-08-08T03:15:09.676Z,100441.92
2018-08-08T03:17:37.069Z,100453.50
2018-08-08T03:20:04.800Z,100449.81
2018-08-08T03:22:32.031Z,100452.07
2018-08-08T03:24:59.307Z,100447.45
2018-08-08T03:27:26.726Z,100444.14
2018-08-08T03:29:54.016Z,100448.41
2018-08-08T03:32:21.253Z,100454.73
2018-08-08T03:34:48.513Z,100461.44
2018-08-08T03:37:15.707Z,100459.23
2018-08-08T03:39:42.967Z,100459.81
2018-08-08T03:42:10.688Z,100455.33
2018-08-08T03:44:37.876Z,100450.55
2018-08-08T03:47:05.583Z,100448.94
2018-08-08T03:49:32.862Z,100449.80
2018-08-08T03:52:00.105Z,100454.78
2018-08-08T03:54:27.412Z,100457.09
2018-08-08T03:56:54.676Z,100459.28
2018-08-08T03:59:21.899Z,100451.36
2018-08-08T04:01:49.123Z,100447.23
2018-08-08T04:04:16.367Z,100451.36
2018-08-08T04:06:43.689Z,100449.52
2018-08-08T04:09:11.645Z,100457.81
2018-08-08T04:11:39.057Z,100454.02
2018-08-08T04:14:06.689Z,100452.89
2018-08-08T04:16:34.141Z,100449.88
2018-08-08T04:19:01.767Z,100450.11
2018-08-08T04:21:29.022Z,100452.67
2018-08-08T04:23:56.224Z,100452.55
2018-08-08T04:26:23.491Z,100468.95
2018-08-08T04:28:50.680Z,100466.28
2018-08-08T04:31:17.960Z,100476.41
2018-08-08T04:33:45.339Z,100481.00
2018-08-08T04:36:12.587Z,100480.05
2018-08-08T04:38:40.955Z,100483.09
2018-08-08T04:41:11.497Z,100485.69
2018-08-08T04:43:40.981Z,100487.40
2018-08-08T04:46:13.786Z,100482.80
2018-08-08T04:48:45.349Z,100489.27
2018-08-08T04:51:17.795Z,100489.36
2018-08-08T04:53:51.073Z,100493.02
2018-08-08T04:56:20.890Z,100491.11
2018-08-08T04:58:52.635Z,100486.50
2018-08-08T05:01:22.675Z,100476.16
2018-08-08T05:03:58.816Z,100481.14
2018-08-08T05:06:29.304Z,100479.44
2018-08-08T05:08:59.436Z,100472.52
2018-08-08T05:11:31.124Z,100466.43
2018-08-08T05:14:00.740Z,100471.77
2018-08-08T05:16:30.807Z,100474.23
2018-08-08T05:19:01.583Z,100475.73
2018-08-08T05:21:33.857Z,100474.07
2018-08-08T05:24:06.398Z,100490.42
2018-08-08T05:26:35.300Z,100486.78
2018-08-08T05:29:07.058Z,100484.24
2018-08-08T05:31:36.720Z,100490.19
2018-08-08T05:34:10.526Z,100493.34
2018-08-08T05:36:41.232Z,100491.77
2018-08-08T05:39:13.544Z,100489.34
2018-08-08T05:41:42.981Z,100500.20
2018-08-08T05:44:10.441Z,100509.83
2018-08-08T05:46:38.173Z,100510.48
2018-08-08T05:49:05.686Z,100518.87
2018-08-08T05:51:33.132Z,100511.66
2018-08-08T05:54:00.396Z,100514.85
2018-08-08T05:56:27.864Z,100517.89
2018-08-08T05:58:55.516Z,100531.43
2018-08-08T06:01:27.984Z,100535.44
2018-08-08T06:03:55.520Z,100542.95
2018-08-08T06:06:23.321Z,100537.99
2018-08-08T06:08:53.063Z,100536.31
2018-08-08T06:11:21.569Z,100533.46
2018-08-08T06:13:48.743Z,100540.67
2018-08-08T06:16:16.297Z,100543.51
2018-08-08T06:18:43.486Z,100543.92
2018-08-08T06:21:11.630Z,100550.95
2018-08-08T06:23:39.505Z,100548.23
2018-08-08T06:26:06.813Z,100554.40
2018-08-08T06:28:34.349Z,100550.66
2018-08-08T06:31:01.858Z,100551.91
2018-08-08T06:33:29.323Z,100552.16
2018-08-08T06:35:56.721Z,100547.91
2018-08-08T06:38:23.943Z,100548.41
2018-08-08T06:40:51.258Z,100538.98
2018-08-08T06:43:18.440Z,100544.50
2018-08-08T06:45:45.756Z,100541.86
2018-08-08T06:48:12.955Z,100534.70
2018-08-08T06:50:40.488Z,100532.68
2018-08-08T06:53:07.762Z,100531.18
2018-08-08T06:55:35.019Z,100531.66
2018-08-08T06:58:02.288Z,100529.41
2018-08-08T07:00:30.829Z,100535.53
2018-08-08T07:02:58.427Z,100522.10
2018-08-08T07:05:26.939Z,100519.94
2018-08-08T07:07:55.228Z,100522.41
2018-08-08T07:10:22.636Z,100523.08
2018-08-08T07:12:49.887Z,100526.98
2018-08-08T07:15:27.355Z,100530.77
2018-08-08T07:17:54.609Z,100529.13
2018-08-08T07:20:22.059Z,100533.34
2018-08-08T07:22:49.508Z,100532.88
2018-08-08T07:25:17.572Z,100528.80
2018-08-08T07:27:44.941Z,100530.59
2018-08-08T07:30:13.565Z,100523.97
2018-08-08T07:32:40.892Z,100517.34
2018-08-08T07:35:08.954Z,100516.41
2018-08-08T07:37:36.316Z,100520.60
2018-08-08T07:40:06.127Z,100516.39
2018-08-08T07:42:33.775Z,100505.68
2018-08-08T07:45:01.092Z,100502.41
2018-08-08T07:47:28.309Z,100502.56
2018-08-08T07:49:55.474Z,100513.84
2018-08-08T07:52:22.724Z,100517.46
2018-08-08T07:54:49.933Z,100513.45
2018-08-08T07:57:17.244Z,100517.87
2018-08-08T07:59:44.462Z,100515.36
2018-08-08T08:02:12.180Z,100511.66
2018-08-08T08:04:39.424Z,100516.09
2018-08-08T08:07:06.629Z,100516.09
2018-08-08T08:09:33.816Z,100515.05
2018-08-08T08:12:01.093Z,100516.23
2018-08-08T08:14:28.272Z,100521.41
2018-08-08T08:16:55.435Z,100514.92
2018-08-08T08:19:22.563Z,100516.42
2018-08-08T08:21:49.816Z,100519.72
2018-08-08T08:24:16.923Z,100524.16
2018-08-08T08:26:44.124Z,100522.38
2018-08-08T08:29:11.327Z,100528.92
2018-08-08T08:31:38.458Z,100529.30
2018-08-08T08:34:05.715Z,100530.11
2018-08-08T08:36:32.895Z,100536.14
2018-08-08T08:39:00.140Z,100528.02
2018-08-08T08:41:27.396Z,100530.97
2018-08-08T08:43:54.640Z,100534.46
2018-08-08T08:46:21.975Z,100524.71
2018-08-08T08:48:49.125Z,100530.59
2018-08-08T08:51:16.298Z,100525.52
2018-08-08T08:53:43.571Z,100525.84
2018-08-08T08:56:10.792Z,100519.88
2018-08-08T08:58:38.112Z,100529.36
2018-08-08T09:01:05.298Z,100536.41
2018-08-08T09:03:32.423Z,100529.23
2018-08-08T09:05:59.637Z,100531.44
2018-08-08T09:08:26.768Z,100531.03
2018-08-08T09:10:54.006Z,100526.69
2018-08-08T09:13:58.528Z,100523.08
2018-08-08T09:16:25.771Z,100526.70
2018-08-08T09:18:52.948Z,100524.85
2018-08-08T09:21:20.999Z,100524.80
2018-08-08T09:23:48.143Z,100523.74
2018-08-08T09:26:15.284Z,100528.30
2018-08-08T09:28:42.571Z,100528.97
2018-08-08T09:31:09.691Z,100524.59
2018-08-08T09:33:36.976Z,100523.91
2018-08-08T09:36:04.631Z,100526.14
2018-08-08T09:38:32.079Z,100525.78
2018-08-08T09:40:59.250Z,100524.64
2018-08-08T09:43:26.658Z,100519.84
2018-08-08T09:45:53.985Z,100515.05
2018-08-08T09:48:21.102Z,100512.89
2018-08-08T09:50:48.280Z,100515.71
2018-08-08T09:53:15.419Z,100505.07
2018-08-08T09:55:42.903Z,100505.94
2018-08-08T09:58:10.189Z,100504.64
2018-08-08T10:00:42.987Z,100497.48
2018-08-08T10:03:15.761Z,100498.02
2018-08-08T10:05:42.947Z,100500.19
2018-08-08T10:08:10.127Z,100490.98
2018-08-08T10:10:37.327Z,100500.03
2018-08-08T10:13:04.466Z,100495.39
2018-08-08T10:15:31.577Z,100493.22
2018-08-08T10:17:58.753Z,100492.28
2018-08-08T10:20:25.924Z,100487.25
2018-08-08T10:22:53.015Z,100493.55
2018-08-08T10:25:20.236Z,100494.78
2018-08-08T10:27:47.353Z,100492.03
2018-08-08T10:30:14.534Z,100496.17
2018-08-08T10:32:41.796Z,100496.16
2018-08-08T10:35:09.899Z,100490.78
2018-08-08T10:37:37.191Z,100486.00
2018-08-08T10:40:05.111Z,100491.42
2018-08-08T10:42:32.295Z,100491.81
2018-08-08T10:44:59.467Z,100492.13
2018-08-08T10:47:26.648Z,100483.86
2018-08-08T10:49:53.779Z,100483.13
2018-08-08T10:52:20.890Z,100478.63
2018-08-08T10:54:48.616Z,100483.72
2018-08-08T10:57:15.789Z,100491.19
2018-08-08T10:59:42.922Z,100485.05
2018-08-08T11:02:10.101Z,100491.37
2018-08-08T11:04:37.338Z,100485.06
2018-08-08T11:07:04.531Z,100488.37
2018-08-08T11:09:31.876Z,100490.45
2018-08-08T11:11:59.002Z,100484.34
2018-08-08T11:14:26.147Z,100488.15
2018-08-08T11:16:53.292Z,100482.89
2018-08-08T11:19:20.461Z,100485.95
2018-08-08T11:21:47.697Z,100479.32
2018-08-08T11:24:15.183Z,100477.36
2018-08-08T11:26:42.535Z,100468.45
2018-08-08T11:29:09.608Z,100473.84
2018-08-08T11:31:36.809Z,100467.00
2018-08-08T11:34:04.113Z,100472.98
2018-08-08T11:36:31.315Z,100473.33
2018-08-08T11:38:58.508Z,100462.33
2018-08-08T11:41:25.757Z,100460.86
2018-08-08T11:43:52.945Z,100460.55
2018-08-08T11:46:20.158Z,100461.97
2018-08-08T11:48:47.450Z,100456.24
2018-08-08T11:51:14.722Z,100465.72
2018-08-08T11:53:42.005Z,100467.61
2018-08-08T11:56:09.185Z,100462.88
2018-08-08T11:58:36.392Z,100455.66
2018-08-08T12:01:04.570Z,100455.16
2018-08-08T12:03:31.628Z,100454.95
2018-08-08T12:05:58.746Z,100457.54
2018-08-08T12:08:26.023Z,100448.80
2018-08-08T12:10:53.232Z,100451.29
2018-08-08T12:13:20.457Z,100453.52
2018-08-08T12:15:47.990Z,100449.95
2018-08-08T12:18:15.149Z,100443.89
2018-08-08T12:20:42.319Z,100436.89
2018-08-08T12:23:09.912Z,100434.77
2018-08-08T12:25:37.175Z,100448.78
2018-08-08T12:28:04.750Z,100440.51
2018-08-08T12:30:32.339Z,100438.98
2018-08-08T12:32:59.514Z,100441.17
2018-08-08T12:35:26.791Z,100432.76
2018-08-08T12:37:53.920Z,100435.78
2018-08-08T12:40:21.121Z,100433.04
2018-08-08T12:42:48.211Z,100422.19
2018-08-08T12:45:15.463Z,100431.39
2018-08-08T12:47:42.684Z,100428.34
2018-08-08T12:50:09.828Z,100421.97
2018-08-08T12:52:37.005Z,100423.27
2018-08-08T12:55:04.226Z,100423.27
2018-08-08T12:57:31.431Z,100419.44
2018-08-08T12:59:58.712Z,100416.91
2018-08-08T13:02:25.852Z,100414.33
2018-08-08T13:04:52.971Z,100414.67
2018-08-08T13:07:20.152Z,100414.83
2018-08-08T13:09:47.352Z,100414.27
2018-08-08T13:12:14.555Z,100414.94
2018-08-08T13:14:41.727Z,100409.52
2018-08-08T13:17:08.837Z,100402.48
2018-08-08T13:19:35.976Z,100400.61
2018-08-08T13:22:03.208Z,100397.13
2018-08-08T13:24:30.413Z,100403.06
2018-08-08T13:26:57.539Z,100405.30
2018-08-08T13:29:24.687Z,100396.89
2018-08-08T13:31:51.801Z,100391.92
2018-08-08T13:34:18.978Z,100383.45
2018-08-08T13:36:46.223Z,100382.39
2018-08-08T13:39:13.816Z,100378.10
2018-08-08T13:41:41.122Z,100370.24
2018-08-08T13:44:08.508Z,100367.95
2018-08-08T13:46:35.724Z,100363.74
2018-08-08T13:49:03.035Z,100365.03
2018-08-08T13:51:30.224Z,100352.00
2018-08-08T13:53:57.447Z,100348.09
2018-08-08T13:56:24.574Z,100349.07
2018-08-08T13:58:51.814Z,100352.37
2018-08-08T14:01:19.046Z,100364.50
2018-08-08T14:03:46.161Z,100355.31
2018-08-08T14:06:13.380Z,100363.55
2018-08-08T14:08:40.592Z,100367.66
2018-08-08T14:11:07.805Z,100361.38
2018-08-08T14:13:35.157Z,100357.86
2018-08-08T14:16:02.352Z,100355.29
2018-08-08T14:18:29.490Z,100370.11
2018-08-08T14:20:56.698Z,100360.81
2018-08-08T14:23:23.904Z,100365.68
2018-08-08T14:25:52.098Z,100365.37
2018-08-08T14:28:19.264Z,100361.12
2018-08-08T14:30:46.392Z,100364.98
2018-08-08T14:33:13.550Z,100367.87
2018-08-08T14:35:40.803Z,100370.32
2018-08-08T14:38:08.069Z,100370.45
2018-08-08T14:40:35.205Z,100368.77
2018-08-08T14:43:02.353Z,100366.48
2018-08-08T14:45:29.476Z,100362.30
2018-08-08T14:47:56.659Z,100367.30
2018-08-08T14:50:23.931Z,100362.73
2018-08-08T14:52:51.074Z,100360.16
2018-08-08T14:55:18.193Z,100360.36
2018-08-08T14:57:45.353Z,100364.16
2018-08-08T15:00:12.529Z,100366.92
2018-08-08T15:02:40.112Z,100370.70
2018-08-08T15:05:08.403Z,100371.38
2018-08-08T15:07:35.525Z,100373.44
2018-08-08T15:10:02.697Z,100378.95
2018-08-08T15:12:29.920Z,100376.45
2018-08-08T15:14:57.099Z,100382.59
2018-08-08T15:17:24.230Z,100386.63
2018-08-08T15:19:51.399Z,100387.26
2018-08-08T15:22:18.557Z,100387.25
2018-08-08T15:24:45.772Z,100394.06
2018-08-08T15:27:13.075Z,100406.96
2018-08-08T15:29:40.362Z,100421.66
2018-08-08T15:32:08.192Z,100435.39
2018-08-08T15:34:35.786Z,100435.73
2018-08-08T15:37:03.549Z,100426.38
2018-08-08T15:39:30.607Z,100423.00
2018-08-08T15:41:58.120Z,100429.20
2018-08-08T15:44:25.895Z,100425.02
2018-08-08T15:46:53.853Z,100431.53
2018-08-08T15:49:21.625Z,100430.46
2018-08-08T15:51:48.864Z,100433.91
2018-08-08T15:54:16.060Z,100436.98
2018-08-08T15:56:43.242Z,100443.36
2018-08-08T15:59:10.470Z,100433.91
2018-08-08T16:01:37.762Z,100431.82
2018-08-08T16:04:05.025Z,100428.45
2018-08-08T16:06:33.118Z,100424.94
2018-08-08T16:09:00.344Z,100425.75
2018-08-08T16:11:27.884Z,100437.58
2018-08-08T16:13:55.061Z,100436.66
2018-08-08T16:16:22.378Z,100445.53
2018-08-08T16:18:50.004Z,100452.95
2018-08-08T16:21:17.979Z,100451.14
2018-08-08T16:23:45.533Z,100450.29
2018-08-08T16:26:12.778Z,100461.64
2018-08-08T16:28:40.245Z,100456.10
2018-08-08T16:31:07.437Z,100458.31
2018-08-08T16:33:35.326Z,100456.52
2018-08-08T16:36:03.260Z,100450.14
2018-08-08T16:38:30.481Z,100456.70
2018-08-08T16:40:58.188Z,100467.67
2018-08-08T16:43:25.299Z,100463.34
2018-08-08T16:45:53.006Z,100457.91
2018-08-08T16:48:20.976Z,100458.75
2018-08-08T16:50:48.144Z,100463.09
2018-08-08T16:53:15.606Z,100466.05
2018-08-08T16:55:42.767Z,100473.02
2018-08-08T16:58:10.575Z,100474.30
2018-08-08T17:00:38.294Z,100476.09
2018-08-08T17:03:05.631Z,100476.09
2018-08-08T17:05:32.836Z,100478.48
2018-08-08T17:08:00.252Z,100474.97
2018-08-08T17:10:29.148Z,100479.57
2018-08-08T17:12:56.884Z,100482.23
2018-08-08T17:15:24.217Z,100483.76
2018-08-08T17:17:51.450Z,100490.92
2018-08-08T17:20:18.599Z,100494.73
2018-08-08T17:22:45.711Z,100500.08
2018-08-08T17:25:13.357Z,100510.66
2018-08-08T17:27:40.728Z,100512.82
2018-08-08T17:30:08.019Z,100519.52
2018-08-08T17:32:36.031Z,100520.59
2018-08-08T17:35:03.222Z,100525.31
2018-08-08T17:37:30.372Z,100528.57
2018-08-08T17:39:58.545Z,100528.96
2018-08-08T17:42:25.745Z,100530.94
2018-08-08T17:44:52.836Z,100539.31
2018-08-08T17:47:20.559Z,100540.69
2018-08-08T17:49:47.750Z,100543.78
2018-08-08T17:52:14.902Z,100548.13
2018-08-08T17:54:42.143Z,100551.88
2018-08-08T17:57:09.232Z,100561.59
2018-08-08T17:59:36.319Z,100568.70
2018-08-08T18:02:03.779Z,100571.45
2018-08-08T18:04:31.089Z,100581.59
2018-08-08T18:06:58.823Z,100586.98
2018-08-08T18:09:25.959Z,100597.80
2018-08-08T18:11:53.024Z,100609.14
2018-08-08T18:14:20.095Z,100615.70
2018-08-08T18:16:47.333Z,100627.50
2018-08-08T18:19:14.492Z,100644.75
2018-08-08T18:21:41.607Z,100648.94
2018-08-08T18:24:08.732Z,100661.59
2018-08-08T18:26:35.830Z,100664.66
2018-08-08T18:29:03.008Z,100672.09
2018-08-08T18:31:30.594Z,100673.48
2018-08-08T18:33:57.979Z,100680.98
2018-08-08T18:36:25.068Z,100686.25
2018-08-08T18:38:52.954Z,100694.39
2018-08-08T18:41:20.114Z,100698.96
2018-08-08T18:43:47.379Z,100696.95
2018-08-08T18:46:14.475Z,100710.31
2018-08-08T18:48:41.554Z,100710.71
2018-08-08T18:51:08.663Z,100723.52
2018-08-08T18:53:35.952Z,100727.52
2018-08-08T18:56:03.118Z,100733.78
2018-08-08T18:58:30.266Z,100737.06
2018-08-08T19:00:57.419Z,100729.56
2018-08-08T19:03:24.483Z,100729.36
2018-08-08T19:05:51.620Z,100741.04
2018-08-08T19:08:18.831Z,100742.72
2018-08-08T19:10:45.946Z,100737.77
2018-08-08T19:13:13.029Z,100742.72
2018-08-08T19:15:40.178Z,100740.21
2018-08-08T19:18:07.335Z,100750.11
2018-08-08T19:20:34.510Z,100759.45
2018-08-08T19:23:01.655Z,100764.42
2018-08-08T19:25:28.838Z,100761.02
2018-08-08T19:27:55.936Z,100750.56
2018-08-08T19:30:23.532Z,100750.55
2018-08-08T19:32:50.687Z,100750.00
2018-08-08T19:35:17.966Z,100757.44
2018-08-08T19:37:45.083Z,100758.73
2018-08-08T19:40:12.197Z,100757.78
2018-08-08T19:42:39.340Z,100758.19
2018-08-08T19:45:06.576Z,100762.42
2018-08-08T19:47:33.659Z,100770.97
2018-08-08T19:50:00.761Z,100773.23
2018-08-08T19:52:27.991Z,100779.95
2018-08-08T19:54:55.152Z,100776.82
2018-08-08T19:57:22.303Z,100770.99
2018-08-08T19:59:49.793Z,100773.72
2018-08-08T20:02:16.903Z,100771.58
2018-08-08T20:04:44.008Z,100775.80
2018-08-08T20:07:11.188Z,100782.72
2018-08-08T20:09:39.242Z,100790.50
2018-08-08T20:12:06.324Z,100793.52
2018-08-08T20:14:33.463Z,100795.90
2018-08-08T20:17:00.563Z,100795.22
2018-08-08T20:19:27.697Z,100796.95
2018-08-08T20:21:54.935Z,100791.43
2018-08-08T20:24:22.023Z,100794.67
2018-08-08T20:26:49.124Z,100789.78
2018-08-08T20:29:16.260Z,100797.06
2018-08-08T20:31:43.401Z,100796.49
2018-08-08T20:34:10.633Z,100793.56
2018-08-08T20:36:37.775Z,100797.04
2018-08-08T20:39:06.953Z,100796.79
2018-08-08T20:41:34.065Z,100792.18
2018-08-08T20:44:01.247Z,100793.45
2018-08-08T20:46:28.382Z,100801.19
2018-08-08T20:48:55.459Z,100806.20
2018-08-08T20:51:22.571Z,100810.52
2018-08-08T20:53:49.705Z,100812.75
2018-08-08T20:56:16.831Z,100810.06
2018-08-08T20:58:45.159Z,100807.23
2018-08-08T21:01:12.248Z,100809.09
2018-08-08T21:03:39.326Z,100808.47
2018-08-08T21:06:06.533Z,100805.19
2018-08-08T21:08:33.659Z,100802.75
2018-08-08T21:11:00.802Z,100810.69
2018-08-08T21:13:27.976Z,100816.48
2018-08-08T21:15:55.064Z,100815.97
2018-08-08T21:18:22.151Z,100810.23
2018-08-08T21:20:49.338Z,100805.93
2018-08-08T21:23:16.516Z,100799.70
2018-08-08T21:25:43.612Z,100802.16
2018-08-08T21:28:10.756Z,100805.45
2018-08-08T21:30:37.868Z,100801.62
2018-08-08T21:33:05.027Z,100809.44
2018-08-08T21:35:32.247Z,100811.61
2018-08-08T21:37:59.335Z,100816.02
2018-08-08T21:40:26.471Z,100814.94
2018-08-08T21:42:53.584Z,100815.16
2018-08-08T21:45:20.721Z,100818.56
2018-08-08T21:47:47.879Z,100819.20
2018-08-08T21:50:15.009Z,100815.02
2018-08-08T21:52:43.297Z,100816.51
2018-08-08T21:55:22.574Z,100814.68
2018-08-08T21:58:01.299Z,100820.28
2018-08-08T22:00:40.013Z,100821.11
2018-08-08T22:03:18.544Z,100822.11
2018-08-08T22:05:58.689Z,100823.78
2018-08-08T22:08:37.214Z,100821.32
2018-08-08T22:11:17.391Z,100817.63
2018-08-08T22:13:56.522Z,100824.97
2018-08-08T22:16:36.404Z,100830.07
2018-08-08T22:19:18.366Z,100827.49
2018-08-08T22:21:45.534Z,100827.19
2018-08-08T22:24:12.654Z,100835.24
2018-08-08T22:26:39.809Z,100838.99
2018-08-08T22:29:07.027Z,100839.21
2018-08-08T22:31:34.135Z,100840.07
2018-08-08T22:34:01.241Z,100841.40
2018-08-08T22:36:28.461Z,100842.27
2018-08-08T22:38:55.740Z,100847.95
2018-08-08T22:41:22.980Z,100840.95
2018-08-08T22:43:50.140Z,100851.41
2018-08-08T22:46:17.288Z,100846.22
2018-08-08T22:48:44.372Z,100841.06
2018-08-08T22:51:11.681Z,100846.44
2018-08-08T22:53:38.885Z,100852.02
2018-08-08T22:56:05.978Z,100856.02
2018-08-08T22:58:33.135Z,100855.98
2018-08-08T23:01:00.254Z,100858.20
2018-08-08T23:03:27.498Z,100859.53
2018-08-08T23:05:54.739Z,100865.14
2018-08-08T23:08:21.870Z,100867.77
2018-08-08T23:10:49.000Z,100863.59
2018-08-08T23:13:16.519Z,100861.84
2018-08-08T23:15:43.668Z,100863.13
2018-08-08T23:18:10.960Z,100864.80
2018-08-08T23:20:38.158Z,100864.01
2018-08-08T23:23:05.250Z,100866.23
2018-08-08T23:25:32.407Z,100868.39
2018-08-08T23:27:59.622Z,100871.83
2018-08-08T23:30:26.802Z,100876.09
2018-08-08T23:32:54.043Z,100875.21
2018-08-08T23:35:21.186Z,100883.30
2018-08-08T23:37:48.270Z,100875.52
2018-08-08T23:40:15.455Z,100875.67
2018-08-08T23:42:43.005Z,100877.45
2018-08-08T23:45:10.101Z,100873.35
2018-08-08T23:47:37.266Z,100878.73
2018-08-08T23:50:04.888Z,100885.02
2018-08-08T23:52:32.082Z,100886.12
2018-08-08T23:54:59.277Z,100884.98
2018-08-08T23:57:26.439Z,100891.05
2018-08-08T23:59:53.534Z,100887.30
